Time;durP1;ratioP1;P1;durP2;ratioP2;P2;SDS_P1;SDS_P2;PMS_P1;PMS_P2;Temp;Humidity;BMP_temperature;BMP_pressure;BME280_temperature;BME280_humidity;BME280_pressure;Samples;Min_cycle;Max_cycle;Signal;HPM_P1;HPM_P2
2022/07/20 00:01:48;;;;;;;15.35;6.65;;;19.50;99.90;;;;;;5043136;28;20032;-59
2022/07/20 00:04:16;;;;;;;10.65;6.40;;;19.60;99.90;;;;;;5043751;28;20108;-59
2022/07/20 00:06:41;;;;;;;14.77;6.90;;;19.50;99.90;;;;;;5038843;28;20126;-61
2022/07/20 00:11:51;;;;;;;15.18;6.60;;;19.50;99.90;;;;;;5030298;28;20024;-58
2022/07/20 00:14:17;;;;;;;13.98;6.75;;;19.50;99.90;;;;;;5036523;28;20034;-58
2022/07/20 00:16:42;;;;;;;11.38;6.28;;;19.50;99.90;;;;;;5048392;28;20021;-58
2022/07/20 00:19:08;;;;;;;11.65;6.38;;;19.50;99.90;;;;;;5042077;28;20116;-58
2022/07/20 00:21:34;;;;;;;11.95;6.63;;;19.50;99.90;;;;;;5041149;28;20043;-58
2022/07/20 00:23:59;;;;;;;11.35;7.45;;;19.50;99.90;;;;;;5047622;28;20548;-58
2022/07/20 00:26:25;;;;;;;17.92;7.40;;;19.60;99.90;;;;;;5035883;28;20029;-58
2022/07/20 00:28:51;;;;;;;12.25;6.85;;;19.60;99.90;;;;;;5040663;28;20038;-58
2022/07/20 00:31:18;;;;;;;18.42;7.00;;;19.60;99.90;;;;;;5038588;28;20024;-58
2022/07/20 00:33:46;;;;;;;17.40;7.47;;;19.60;99.90;;;;;;5044785;28;20116;-58
2022/07/20 00:36:18;;;;;;;13.93;7.20;;;19.60;99.90;;;;;;5037776;28;20057;-59
2022/07/20 00:38:44;;;;;;;16.77;7.43;;;19.60;99.90;;;;;;5040630;28;20075;-58
2022/07/20 00:41:09;;;;;;;14.18;6.40;;;19.60;99.90;;;;;;5044519;28;20021;-59
2022/07/20 00:43:58;;;;;;;12.95;7.18;;;19.50;99.90;;;;;;5040332;28;20029;-57
2022/07/20 00:46:25;;;;;;;12.55;7.20;;;19.40;99.90;;;;;;5031364;28;20026;-58
2022/07/20 00:48:52;;;;;;;11.25;6.28;;;19.40;99.90;;;;;;5038721;28;20033;-58
2022/07/20 00:51:17;;;;;;;15.48;6.10;;;19.50;99.90;;;;;;5036410;28;20048;-57
2022/07/20 00:53:44;;;;;;;17.55;6.82;;;19.50;99.90;;;;;;5041078;28;20064;-57
2022/07/20 00:56:11;;;;;;;12.43;5.07;;;19.40;99.90;;;;;;5034836;28;20075;-58
2022/07/20 00:58:37;;;;;;;11.02;5.60;;;19.40;99.90;;;;;;5039541;28;20036;-58
2022/07/20 01:01:03;;;;;;;9.65;4.63;;;19.40;99.90;;;;;;5038379;28;20123;-58
2022/07/20 01:03:30;;;;;;;15.13;5.07;;;19.30;99.90;;;;;;5036590;28;20060;-58
2022/07/20 01:05:55;;;;;;;11.60;4.60;;;19.30;99.90;;;;;;5033926;28;20029;-58
2022/07/20 01:08:21;;;;;;;11.90;4.03;;;19.30;99.90;;;;;;5039507;28;20377;-58
2022/07/20 01:10:48;;;;;;;18.40;4.68;;;19.30;99.90;;;;;;5038303;28;20028;-58
2022/07/20 01:13:14;;;;;;;12.73;4.45;;;19.20;99.90;;;;;;5030292;28;20534;-57
2022/07/20 01:15:39;;;;;;;12.68;5.82;;;19.10;99.90;;;;;;5033438;28;20116;-57
2022/07/20 01:18:05;;;;;;;17.67;5.03;;;19.10;99.90;;;;;;5038439;28;20029;-58
2022/07/20 01:20:32;;;;;;;19.55;5.15;;;19.00;99.90;;;;;;5036104;28;20021;-58
2022/07/20 01:22:58;;;;;;;15.52;5.75;;;19.00;99.90;;;;;;5035676;28;20126;-57
2022/07/20 01:25:24;;;;;;;12.95;4.93;;;19.00;99.90;;;;;;5035446;28;20497;-58
2022/07/20 01:27:49;;;;;;;16.33;5.65;;;19.00;99.90;;;;;;5034468;28;20116;-58
2022/07/20 01:30:15;;;;;;;17.70;4.38;;;18.90;99.90;;;;;;5032270;28;20051;-57
2022/07/20 01:32:41;;;;;;;16.38;4.85;;;18.90;99.90;;;;;;5039676;28;20021;-58
2022/07/20 01:35:07;;;;;;;26.52;6.35;;;18.90;99.90;;;;;;5034221;28;20040;-58
2022/07/20 01:37:32;;;;;;;22.75;6.18;;;18.90;99.90;;;;;;5031844;28;20025;-58
2022/07/20 01:39:58;;;;;;;20.98;7.07;;;18.90;99.90;;;;;;5036879;28;20030;-58
2022/07/20 01:42:24;;;;;;;15.30;5.63;;;18.90;99.90;;;;;;5036821;28;20109;-58
2022/07/20 01:44:49;;;;;;;17.60;6.82;;;18.90;99.90;;;;;;5032981;28;20037;-59
2022/07/20 01:47:15;;;;;;;17.98;6.63;;;18.90;99.90;;;;;;5040836;28;20376;-59
2022/07/20 01:49:41;;;;;;;23.58;6.78;;;18.90;99.90;;;;;;5031571;28;20044;-58
2022/07/20 01:52:07;;;;;;;18.88;6.00;;;19.00;99.90;;;;;;5040740;28;20384;-59
2022/07/20 01:54:32;;;;;;;17.63;5.88;;;18.90;99.90;;;;;;5040416;28;20037;-58
2022/07/20 01:56:58;;;;;;;18.80;7.38;;;18.90;99.90;;;;;;5036290;28;20063;-58
2022/07/20 01:59:24;;;;;;;21.42;8.15;;;18.90;99.90;;;;;;5030225;28;20029;-58
2022/07/20 02:01:49;;;;;;;24.77;6.25;;;18.90;99.90;;;;;;5032652;28;20060;-58
2022/07/20 02:04:15;;;;;;;22.45;6.82;;;18.90;99.90;;;;;;5035369;28;20068;-57
2022/07/20 02:06:40;;;;;;;18.80;7.38;;;18.90;99.90;;;;;;5036355;28;20025;-57
2022/07/20 02:09:06;;;;;;;17.60;6.97;;;18.90;99.90;;;;;;5038678;28;20037;-57
2022/07/20 02:11:32;;;;;;;24.70;7.75;;;18.90;99.90;;;;;;5034893;28;20076;-57
2022/07/20 02:13:57;;;;;;;18.63;7.57;;;18.90;99.90;;;;;;5037879;28;20041;-58
2022/07/20 02:16:23;;;;;;;21.48;7.40;;;19.00;99.90;;;;;;5034584;28;20041;-58
2022/07/20 02:18:55;;;;;;;20.98;7.28;;;18.90;99.90;;;;;;5044598;28;20123;-59
2022/07/20 02:21:22;;;;;;;16.88;7.10;;;18.90;99.90;;;;;;5028799;28;20026;-58
2022/07/20 02:23:48;;;;;;;22.27;6.55;;;18.90;99.90;;;;;;5035090;28;20050;-59
2022/07/20 02:26:14;;;;;;;16.73;7.63;;;18.90;99.90;;;;;;5029170;28;20469;-59
2022/07/20 02:28:40;;;;;;;21.80;8.10;;;18.90;99.90;;;;;;5035232;28;20036;-58
2022/07/20 02:31:06;;;;;;;22.67;7.75;;;18.90;99.90;;;;;;5038109;28;20025;-58
2022/07/20 02:33:32;;;;;;;18.52;7.32;;;19.00;99.90;;;;;;5034576;28;20037;-58
2022/07/20 02:35:58;;;;;;;20.00;6.72;;;19.00;99.90;;;;;;5037026;28;20026;-57
2022/07/20 02:38:24;;;;;;;22.58;7.30;;;19.00;99.90;;;;;;5032903;28;20029;-57
2022/07/20 02:40:50;;;;;;;17.38;7.63;;;19.00;99.90;;;;;;5036336;28;20028;-58
2022/07/20 02:43:16;;;;;;;19.08;7.15;;;19.00;99.90;;;;;;5035987;28;20033;-58
2022/07/20 02:45:41;;;;;;;22.23;7.18;;;19.00;99.90;;;;;;5038440;28;20029;-58
2022/07/20 02:48:07;;;;;;;17.73;7.00;;;19.10;99.90;;;;;;5039800;28;20041;-58
2022/07/20 02:50:36;;;;;;;17.45;6.53;;;19.10;99.90;;;;;;5035883;28;20315;-58
2022/07/20 02:53:04;;;;;;;20.88;7.10;;;19.20;99.90;;;;;;5034613;28;20110;-59
2022/07/20 02:55:30;;;;;;;24.10;7.22;;;19.20;99.90;;;;;;5042427;28;20033;-59
2022/07/20 02:57:55;;;;;;;18.45;7.32;;;19.20;99.90;;;;;;5044954;28;20035;-58
2022/07/20 03:00:22;;;;;;;19.45;7.43;;;19.20;99.90;;;;;;5033472;28;20392;-58
2022/07/20 03:02:48;;;;;;;19.58;6.72;;;19.20;99.90;;;;;;5036497;28;20033;-58
2022/07/20 03:05:14;;;;;;;19.10;7.63;;;19.20;99.90;;;;;;5037259;28;20037;-58
2022/07/20 03:07:40;;;;;;;18.23;7.20;;;19.20;99.90;;;;;;5027331;28;20034;-58
2022/07/20 03:10:08;;;;;;;17.80;6.38;;;19.20;99.90;;;;;;5034326;28;20041;-58
2022/07/20 03:12:33;;;;;;;13.93;6.78;;;19.20;99.90;;;;;;5037974;28;20025;-59
2022/07/20 03:14:59;;;;;;;18.65;7.75;;;19.30;99.90;;;;;;5040299;28;20032;-59
2022/07/20 03:17:25;;;;;;;21.38;7.22;;;19.30;99.90;;;;;;5039358;28;20063;-58
2022/07/20 03:19:50;;;;;;;25.13;8.07;;;19.30;99.90;;;;;;5029735;28;20365;-58
2022/07/20 03:22:16;;;;;;;22.85;7.70;;;19.20;99.90;;;;;;5036556;28;20396;-58
2022/07/20 03:24:42;;;;;;;20.02;7.35;;;19.20;99.90;;;;;;5043336;28;20496;-58
2022/07/20 03:27:08;;;;;;;16.58;7.25;;;19.20;99.90;;;;;;5034711;28;20033;-58
2022/07/20 03:29:34;;;;;;;17.35;6.72;;;19.10;99.90;;;;;;5035102;28;20033;-58
2022/07/20 03:31:59;;;;;;;15.75;6.57;;;19.10;99.90;;;;;;5035618;28;20112;-58
2022/07/20 03:34:25;;;;;;;21.65;7.38;;;19.10;99.90;;;;;;5037554;28;20119;-58
2022/07/20 03:36:51;;;;;;;21.08;7.10;;;19.10;99.90;;;;;;5035603;28;20025;-58
2022/07/20 03:39:17;;;;;;;18.65;7.80;;;19.10;99.90;;;;;;5035820;28;20032;-58
2022/07/20 03:41:43;;;;;;;15.82;7.47;;;19.10;99.90;;;;;;5031599;28;20424;-58
2022/07/20 03:44:08;;;;;;;26.52;7.35;;;19.10;99.90;;;;;;5040151;28;20029;-58
2022/07/20 03:46:34;;;;;;;15.63;7.68;;;19.00;99.90;;;;;;5037299;28;20056;-59
2022/07/20 03:49:00;;;;;;;21.90;7.32;;;19.10;99.90;;;;;;5034113;28;20448;-58
2022/07/20 03:51:25;;;;;;;18.83;7.40;;;19.00;99.90;;;;;;5033334;28;20029;-58
2022/07/20 03:53:51;;;;;;;17.52;7.68;;;19.00;99.90;;;;;;5040227;28;20061;-57
2022/07/20 03:56:17;;;;;;;24.55;7.95;;;19.00;99.90;;;;;;5035075;28;20025;-59
2022/07/20 03:58:42;;;;;;;25.02;9.52;;;18.90;99.90;;;;;;5030726;28;20083;-57
2022/07/20 04:01:08;;;;;;;23.88;8.75;;;18.90;99.90;;;;;;5028327;28;20025;-57
2022/07/20 04:03:34;;;;;;;21.17;8.85;;;18.90;99.90;;;;;;5041374;28;20404;-57
2022/07/20 04:06:00;;;;;;;17.85;7.93;;;18.80;99.90;;;;;;5029655;28;20025;-57
2022/07/20 04:08:26;;;;;;;19.63;7.90;;;18.80;99.90;;;;;;5033285;28;20037;-57
2022/07/20 04:10:52;;;;;;;23.40;8.38;;;18.80;99.90;;;;;;5032302;28;20026;-59
2022/07/20 04:13:17;;;;;;;19.08;8.10;;;18.80;99.90;;;;;;5036783;28;20369;-59
2022/07/20 04:15:43;;;;;;;19.77;8.93;;;18.80;99.90;;;;;;5033877;28;20021;-59
2022/07/20 04:18:09;;;;;;;25.73;8.95;;;18.70;99.90;;;;;;5045079;28;20476;-58
2022/07/20 04:20:35;;;;;;;20.98;9.07;;;18.80;99.90;;;;;;5042725;28;20075;-59
2022/07/20 04:23:01;;;;;;;21.60;8.40;;;18.70;99.90;;;;;;5041752;28;20053;-60
2022/07/20 04:25:26;;;;;;;20.23;7.60;;;18.70;99.90;;;;;;5041655;28;20045;-60
2022/07/20 04:27:52;;;;;;;28.42;8.25;;;18.70;99.90;;;;;;5045890;28;20037;-58
2022/07/20 04:30:18;;;;;;;22.67;8.50;;;18.60;99.90;;;;;;5035717;28;20064;-58
2022/07/20 04:32:44;;;;;;;17.75;7.38;;;18.70;99.90;;;;;;5039652;28;20469;-58
2022/07/20 04:35:11;;;;;;;18.95;7.30;;;18.60;99.90;;;;;;5040883;28;20025;-58
2022/07/20 04:37:37;;;;;;;16.35;7.47;;;18.60;99.90;;;;;;5033721;28;20030;-59
2022/07/20 04:40:04;;;;;;;17.67;6.47;;;18.60;99.90;;;;;;5038301;28;20448;-59
2022/07/20 04:42:31;;;;;;;21.73;7.97;;;18.60;99.90;;;;;;5031248;28;20025;-57
2022/07/20 04:44:56;;;;;;;19.13;8.10;;;18.60;99.90;;;;;;5036944;28;20025;-57
2022/07/20 04:47:22;;;;;;;26.35;8.15;;;18.60;99.90;;;;;;5033707;28;20044;-57
2022/07/20 04:49:48;;;;;;;25.00;8.00;;;18.70;99.90;;;;;;5040772;28;20025;-57
2022/07/20 04:52:14;;;;;;;22.65;7.93;;;18.60;99.90;;;;;;5035406;28;20033;-57
2022/07/20 04:54:41;;;;;;;18.67;8.13;;;18.60;99.90;;;;;;5044801;28;20472;-58
2022/07/20 04:57:06;;;;;;;19.25;7.65;;;18.60;99.90;;;;;;5033119;28;20048;-58
2022/07/20 04:59:32;;;;;;;17.52;7.55;;;18.60;99.90;;;;;;5030720;28;20390;-58
2022/07/20 05:01:58;;;;;;;21.75;8.77;;;18.70;99.90;;;;;;5034060;28;20163;-58
2022/07/20 05:04:24;;;;;;;22.88;8.25;;;18.70;99.90;;;;;;5031779;28;20034;-58
2022/07/20 05:06:49;;;;;;;22.48;8.73;;;18.80;99.90;;;;;;5034545;28;20129;-58
2022/07/20 05:09:15;;;;;;;15.80;7.93;;;18.80;99.90;;;;;;5032899;28;20070;-58
2022/07/20 05:11:41;;;;;;;20.17;7.90;;;18.80;99.90;;;;;;5031381;28;20469;-57
2022/07/20 05:14:08;;;;;;;20.17;8.25;;;18.80;99.90;;;;;;5036657;28;20025;-58
2022/07/20 05:16:34;;;;;;;17.00;7.93;;;18.80;99.90;;;;;;5036077;28;20097;-58
2022/07/20 05:19:00;;;;;;;22.95;8.82;;;18.80;99.90;;;;;;5040781;28;20123;-58
2022/07/20 05:21:26;;;;;;;19.58;7.47;;;18.80;99.90;;;;;;5033723;28;20052;-57
2022/07/20 05:23:52;;;;;;;20.05;7.85;;;18.90;99.90;;;;;;5032545;28;20045;-60
2022/07/20 05:26:18;;;;;;;21.60;8.63;;;18.90;99.90;;;;;;5041539;28;20026;-58
2022/07/20 05:28:43;;;;;;;15.52;8.32;;;18.90;99.90;;;;;;5033345;28;20041;-58
2022/07/20 05:31:10;;;;;;;17.35;8.30;;;19.00;99.90;;;;;;5036218;28;20038;-58
2022/07/20 05:33:36;;;;;;;21.23;7.53;;;19.00;99.90;;;;;;5037100;28;20107;-57
2022/07/20 05:36:03;;;;;;;20.23;7.35;;;19.10;99.90;;;;;;5033663;28;20124;-58
2022/07/20 05:38:29;;;;;;;20.95;7.18;;;19.20;99.90;;;;;;5041240;28;20413;-58
2022/07/20 05:40:55;;;;;;;21.85;6.82;;;19.20;99.90;;;;;;5037549;28;20021;-58
2022/07/20 05:43:21;;;;;;;16.63;7.60;;;19.20;99.90;;;;;;5021144;28;20120;-58
2022/07/20 05:45:47;;;;;;;19.75;7.35;;;19.30;99.90;;;;;;5032787;28;20037;-58
2022/07/20 05:48:13;;;;;;;15.90;6.18;;;19.40;99.90;;;;;;5032055;28;20045;-58
2022/07/20 05:50:39;;;;;;;13.77;5.47;;;19.40;99.90;;;;;;5031057;28;20029;-58
2022/07/20 05:53:06;;;;;;;12.32;5.43;;;19.40;99.90;;;;;;5026565;28;20033;-59
2022/07/20 05:55:32;;;;;;;14.63;5.85;;;19.40;99.90;;;;;;5038101;28;20030;-59
2022/07/20 05:57:58;;;;;;;13.35;5.50;;;19.40;99.90;;;;;;5043268;28;20029;-58
2022/07/20 06:00:24;;;;;;;13.48;4.88;;;19.30;99.90;;;;;;5043077;28;20040;-58
2022/07/20 06:02:49;;;;;;;19.23;5.63;;;19.40;99.90;;;;;;5032820;28;20049;-59
2022/07/20 06:05:15;;;;;;;13.15;5.28;;;19.30;99.90;;;;;;5028583;28;20103;-58
2022/07/20 06:07:41;;;;;;;22.33;5.20;;;19.40;99.90;;;;;;5032218;28;20103;-59
2022/07/20 06:10:07;;;;;;;20.10;4.72;;;19.50;99.90;;;;;;5039479;28;20040;-59
2022/07/20 06:12:33;;;;;;;13.40;5.07;;;19.60;99.90;;;;;;5030565;28;20017;-59
2022/07/20 06:14:59;;;;;;;19.85;5.10;;;19.60;99.90;;;;;;5039173;28;20071;-59
2022/07/20 06:17:35;;;;;;;14.77;4.32;;;19.70;99.90;;;;;;5035188;28;20025;-59
2022/07/20 06:20:07;;;;;;;13.90;4.32;;;19.80;99.90;;;;;;5036825;28;20029;-58
2022/07/20 06:22:35;;;;;;;19.05;4.97;;;19.90;99.90;;;;;;5028349;28;20120;-58
2022/07/20 06:25:01;;;;;;;14.52;4.97;;;19.90;99.90;;;;;;5036448;28;20106;-58
2022/07/20 06:27:27;;;;;;;17.35;4.65;;;19.90;99.90;;;;;;5035316;28;20364;-58
2022/07/20 06:29:52;;;;;;;14.70;4.70;;;19.90;99.90;;;;;;5036805;28;20480;-59
2022/07/20 06:32:18;;;;;;;8.27;6.10;;;19.90;99.90;;;;;;5034370;28;20030;-59
2022/07/20 06:34:45;;;;;;;16.48;4.15;;;20.00;99.90;;;;;;5030631;28;20022;-59
2022/07/20 06:37:10;;;;;;;15.10;4.57;;;20.00;99.90;;;;;;5034175;28;20096;-58
2022/07/20 06:39:36;;;;;;;13.75;4.35;;;20.00;99.90;;;;;;5040065;28;20469;-58
2022/07/20 06:42:02;;;;;;;11.73;3.85;;;20.00;99.90;;;;;;5037499;28;20021;-59
2022/07/20 06:44:27;;;;;;;16.05;3.45;;;20.00;99.90;;;;;;5026705;28;20084;-59
2022/07/20 06:46:53;;;;;;;15.98;4.30;;;20.00;99.90;;;;;;5037210;28;20043;-58
2022/07/20 06:49:19;;;;;;;13.35;3.85;;;20.10;99.90;;;;;;5035716;28;20091;-60
2022/07/20 06:51:44;;;;;;;13.75;3.65;;;20.00;99.90;;;;;;5025484;28;20466;-60
2022/07/20 06:54:10;;;;;;;15.60;4.10;;;19.90;99.90;;;;;;5031544;28;20068;-58
2022/07/20 06:56:36;;;;;;;13.52;3.63;;;19.80;99.90;;;;;;5032284;28;20120;-59
2022/07/20 06:59:01;;;;;;;8.25;3.20;;;19.80;99.90;;;;;;5033350;28;20033;-60
2022/07/20 07:01:27;;;;;;;16.00;3.40;;;19.90;99.90;;;;;;5041946;28;20053;-59
2022/07/20 07:03:53;;;;;;;18.30;3.65;;;19.90;99.90;;;;;;5036793;28;20033;-59
2022/07/20 07:06:18;;;;;;;12.85;3.22;;;19.90;99.90;;;;;;5038589;28;20116;-58
2022/07/20 07:08:44;;;;;;;15.35;3.42;;;20.00;99.90;;;;;;5029948;28;20513;-59
2022/07/20 07:11:09;;;;;;;10.35;3.03;;;20.10;99.90;;;;;;5034492;28;20025;-59
2022/07/20 07:13:35;;;;;;;10.40;3.15;;;20.00;99.90;;;;;;5029941;28;20033;-59
2022/07/20 07:16:01;;;;;;;9.88;3.78;;;19.90;99.90;;;;;;5031897;28;20041;-59
2022/07/20 07:18:27;;;;;;;12.65;3.53;;;19.80;99.90;;;;;;5029098;28;20092;-57
2022/07/20 07:20:52;;;;;;;15.30;3.42;;;19.70;99.90;;;;;;5038959;28;20026;-58
2022/07/20 07:23:18;;;;;;;17.55;3.15;;;19.70;99.90;;;;;;5031311;28;20045;-58
2022/07/20 07:25:44;;;;;;;12.18;2.95;;;19.80;99.90;;;;;;5036215;28;20029;-59
2022/07/20 07:28:09;;;;;;;16.98;3.38;;;19.80;99.90;;;;;;5025927;28;20116;-59
2022/07/20 07:30:35;;;;;;;11.93;3.83;;;19.80;99.90;;;;;;5042722;28;20040;-59
2022/07/20 07:33:01;;;;;;;12.10;2.95;;;19.80;99.90;;;;;;5030988;28;20026;-60
2022/07/20 07:35:26;;;;;;;7.80;2.85;;;19.90;99.90;;;;;;5030490;28;20021;-59
2022/07/20 07:37:52;;;;;;;13.88;3.15;;;20.00;99.90;;;;;;5035884;28;20389;-58
2022/07/20 07:40:18;;;;;;;9.30;2.70;;;20.20;99.90;;;;;;5028661;28;20029;-59
2022/07/20 07:42:43;;;;;;;8.38;2.80;;;20.20;99.90;;;;;;5028711;28;20544;-59
2022/07/20 07:45:09;;;;;;;7.88;2.65;;;20.20;99.90;;;;;;5029483;28;20036;-58
2022/07/20 07:47:36;;;;;;;10.27;2.65;;;20.20;99.90;;;;;;5033884;28;20025;-58
2022/07/20 07:50:03;;;;;;;8.65;2.72;;;20.30;99.90;;;;;;5030536;28;20029;-59
2022/07/20 07:52:28;;;;;;;10.45;2.50;;;20.40;99.90;;;;;;5031510;28;20108;-59
2022/07/20 07:54:54;;;;;;;12.70;2.47;;;20.60;99.90;;;;;;5038496;28;20124;-59
2022/07/20 07:57:19;;;;;;;7.82;2.20;;;20.80;99.90;;;;;;5040108;28;20056;-58
2022/07/20 07:59:45;;;;;;;11.75;2.70;;;20.80;99.90;;;;;;5035709;28;20056;-58
2022/07/20 08:02:11;;;;;;;7.45;2.35;;;21.10;99.90;;;;;;5033139;28;20040;-58
2022/07/20 08:04:36;;;;;;;12.40;2.33;;;21.20;99.90;;;;;;5034001;28;20032;-58
2022/07/20 08:07:02;;;;;;;7.72;2.42;;;21.30;99.90;;;;;;5039296;28;20021;-58
2022/07/20 08:09:29;;;;;;;16.88;2.45;;;21.30;99.90;;;;;;5034895;28;20029;-58
2022/07/20 08:11:55;;;;;;;13.05;2.95;;;21.20;99.90;;;;;;5032321;28;20095;-59
2022/07/20 08:14:21;;;;;;;6.72;2.20;;;20.90;99.90;;;;;;5030857;28;20477;-59
2022/07/20 08:16:46;;;;;;;10.88;3.40;;;20.60;99.90;;;;;;5034062;28;20436;-58
2022/07/20 08:19:12;;;;;;;15.63;3.03;;;20.70;99.90;;;;;;5033361;28;20485;-58
2022/07/20 08:21:38;;;;;;;8.38;2.72;;;20.80;99.90;;;;;;5032080;28;20416;-58
2022/07/20 08:24:05;;;;;;;14.23;2.58;;;20.90;99.90;;;;;;5041991;28;20049;-59
2022/07/20 08:26:32;;;;;;;14.07;2.67;;;21.10;99.90;;;;;;5030856;28;20032;-58
2022/07/20 08:28:58;;;;;;;11.55;2.40;;;21.20;99.90;;;;;;5033432;28;20053;-59
2022/07/20 08:31:24;;;;;;;12.95;2.58;;;21.30;99.90;;;;;;5035560;28;20500;-59
2022/07/20 08:33:50;;;;;;;13.30;2.70;;;21.30;99.90;;;;;;5032343;28;20030;-59
2022/07/20 08:36:15;;;;;;;6.30;2.83;;;21.30;99.90;;;;;;5033685;28;20412;-58
2022/07/20 08:38:41;;;;;;;9.70;2.40;;;21.50;99.90;;;;;;5035109;28;20092;-58
2022/07/20 08:41:08;;;;;;;14.25;2.70;;;21.70;99.90;;;;;;5038401;28;20499;-59
2022/07/20 08:43:33;;;;;;;10.68;3.03;;;21.70;99.90;;;;;;5035675;28;20038;-59
2022/07/20 08:45:59;;;;;;;10.90;2.42;;;21.70;99.90;;;;;;5033154;28;20032;-58
2022/07/20 08:48:26;;;;;;;8.80;2.67;;;21.60;99.90;;;;;;5031746;28;20048;-58
2022/07/20 08:50:52;;;;;;;9.55;2.22;;;21.60;99.90;;;;;;5033612;28;20175;-59
2022/07/20 08:53:19;;;;;;;11.13;3.35;;;21.60;99.90;;;;;;5037080;28;20528;-58
2022/07/20 08:55:45;;;;;;;11.50;2.60;;;21.50;99.90;;;;;;5034422;28;20146;-59
2022/07/20 08:58:11;;;;;;;6.93;2.40;;;21.60;99.90;;;;;;5033245;28;20021;-58
2022/07/20 09:00:38;;;;;;;7.00;1.90;;;21.70;99.90;;;;;;5036332;28;20084;-58
2022/07/20 09:03:06;;;;;;;10.68;2.58;;;21.80;99.90;;;;;;5038526;28;20029;-59
2022/07/20 09:05:34;;;;;;;8.90;2.92;;;21.80;99.90;;;;;;5036365;28;20026;-58
2022/07/20 09:08:01;;;;;;;6.30;1.55;;;21.80;99.90;;;;;;5037023;28;20400;-59
2022/07/20 09:10:32;;;;;;;7.00;1.48;;;21.80;99.90;;;;;;5032804;28;20031;-59
2022/07/20 09:13:02;;;;;;;10.88;2.88;;;21.90;99.90;;;;;;5038987;28;20061;-59
2022/07/20 09:15:33;;;;;;;5.95;1.42;;;22.10;99.90;;;;;;5040635;28;20385;-59
2022/07/20 09:18:17;;;;;;;8.02;2.25;;;22.30;99.90;;;;;;5041594;28;20025;-59
2022/07/20 09:20:47;;;;;;;8.30;1.98;;;22.30;99.90;;;;;;5034772;28;20111;-59
2022/07/20 09:23:25;;;;;;;5.53;1.60;;;22.40;99.90;;;;;;5036323;28;20025;-60
2022/07/20 09:26:02;;;;;;;9.35;2.03;;;22.60;99.90;;;;;;5038391;28;20132;-59
2022/07/20 09:28:46;;;;;;;9.05;1.95;;;22.50;99.90;;;;;;5035157;28;20052;-59
2022/07/20 09:31:21;;;;;;;9.80;1.92;;;22.50;99.90;;;;;;5030439;28;20033;-58
2022/07/20 09:33:58;;;;;;;5.55;1.80;;;22.60;99.90;;;;;;5033957;28;20056;-58
2022/07/20 09:36:27;;;;;;;6.45;1.80;;;22.70;99.90;;;;;;5031460;28;20032;-59
2022/07/20 09:38:53;;;;;;;3.85;1.45;;;22.40;99.90;;;;;;5039614;28;20036;-59
2022/07/20 09:41:25;;;;;;;8.30;1.88;;;22.60;99.90;;;;;;5030597;28;20040;-59
2022/07/20 09:43:51;;;;;;;;;;;22.60;99.90;;;;;;5040490;28;20040;-59
2022/07/20 09:46:24;;;;;;;11.23;2.13;;;22.40;99.90;;;;;;5031683;28;20377;-59
2022/07/20 09:48:53;;;;;;;9.18;1.60;;;22.40;99.90;;;;;;5032890;28;20128;-58
2022/07/20 09:51:24;;;;;;;10.85;2.58;;;22.60;99.90;;;;;;5042303;28;20025;-58
2022/07/20 09:53:55;;;;;;;16.95;2.40;;;22.70;99.90;;;;;;5030739;28;20048;-59
2022/07/20 09:56:22;;;;;;;11.80;2.47;;;22.90;99.90;;;;;;5027765;28;20155;-59
2022/07/20 09:58:50;;;;;;;10.65;1.65;;;22.90;99.90;;;;;;5029288;28;20033;-58
2022/07/20 10:01:21;;;;;;;8.20;2.00;;;22.70;99.90;;;;;;5043155;28;20051;-58
2022/07/20 10:03:48;;;;;;;5.90;1.87;;;22.60;99.90;;;;;;5027991;28;20033;-59
2022/07/20 10:06:18;;;;;;;9.00;2.53;;;22.60;99.90;;;;;;5036192;28;20312;-59
2022/07/20 10:08:44;;;;;;;5.20;1.95;;;22.50;99.90;;;;;;5029268;28;20041;-59
2022/07/20 10:11:11;;;;;;;9.52;2.33;;;22.50;99.90;;;;;;5028239;28;20426;-60
2022/07/20 10:13:38;;;;;;;8.00;1.75;;;22.60;99.90;;;;;;5033772;28;20037;-60
2022/07/20 10:16:06;;;;;;;7.43;1.63;;;22.50;99.90;;;;;;5032304;28;20472;-57
2022/07/20 10:18:32;;;;;;;6.45;1.90;;;22.60;99.90;;;;;;5029684;28;20025;-59
2022/07/20 10:20:59;;;;;;;10.23;1.60;;;22.30;99.90;;;;;;5034216;28;20049;-59
2022/07/20 10:23:29;;;;;;;5.45;2.08;;;22.20;99.90;;;;;;5027799;28;20805;-59
2022/07/20 10:25:56;;;;;;;9.65;2.05;;;22.20;99.90;;;;;;5037069;28;20104;-60
2022/07/20 10:28:32;;;;;;;4.85;3.03;;;22.40;99.90;;;;;;5028363;28;20037;-59
2022/07/20 10:31:16;;;;;;;5.57;1.85;;;22.50;99.90;;;;;;5037030;28;20380;-57
2022/07/20 10:33:43;;;;;;;3.97;1.40;;;22.50;99.90;;;;;;5022090;28;20436;-58
2022/07/20 10:39:39;;;;;;;5.13;2.03;;;22.70;99.90;;;;;;5034802;28;20534;-58
2022/07/20 10:42:47;;;;;;;8.63;1.85;;;22.70;99.90;;;;;;5029343;28;20037;-58
2022/07/20 10:45:27;;;;;;;9.82;3.20;;;22.90;99.90;;;;;;5006589;28;20102;-59
2022/07/20 10:47:54;;;;;;;5.40;1.42;;;22.80;99.90;;;;;;5031067;28;20092;-58
2022/07/20 10:50:33;;;;;;;6.15;1.27;;;22.80;99.90;;;;;;5037763;28;20033;-58
2022/07/20 10:53:10;;;;;;;5.30;1.60;;;22.70;99.90;;;;;;5033830;28;20029;-58
2022/07/20 10:55:36;;;;;;;4.85;1.58;;;22.60;99.90;;;;;;5032141;28;20029;-58
2022/07/20 10:58:14;;;;;;;5.47;1.50;;;22.50;99.90;;;;;;5027106;28;20034;-58
2022/07/20 11:00:54;;;;;;;10.40;2.78;;;22.50;99.90;;;;;;5033849;28;20056;-58
2022/07/20 11:03:22;;;;;;;5.55;1.63;;;22.50;99.90;;;;;;5039713;28;20511;-58
2022/07/20 11:06:07;;;;;;;5.05;1.52;;;22.40;99.90;;;;;;5036686;28;20032;-57
2022/07/20 11:08:35;;;;;;;4.60;1.85;;;22.70;99.90;;;;;;5038967;28;20033;-59
2022/07/20 11:11:01;;;;;;;4.88;1.33;;;22.90;99.90;;;;;;5034828;28;20473;-58
2022/07/20 11:13:27;;;;;;;3.50;1.20;;;23.40;99.90;;;;;;5027593;28;20026;-58
2022/07/20 11:15:57;;;;;;;5.85;1.55;;;23.90;99.90;;;;;;5033943;28;20021;-58
2022/07/20 11:18:27;;;;;;;4.72;1.75;;;24.00;99.90;;;;;;5026294;28;20108;-59
2022/07/20 11:20:54;;;;;;;9.70;2.53;;;24.10;99.90;;;;;;5031778;28;20025;-58
2022/07/20 11:23:23;;;;;;;5.22;1.40;;;24.00;99.90;;;;;;5025741;28;20137;-58
2022/07/20 11:25:53;;;;;;;6.43;1.83;;;23.90;99.90;;;;;;5029791;28;20040;-59
2022/07/20 11:28:26;;;;;;;6.15;2.55;;;24.10;99.90;;;;;;5019958;28;20041;-58
2022/07/20 11:30:53;;;;;;;5.82;2.20;;;24.20;99.90;;;;;;5032583;28;20425;-58
2022/07/20 11:33:29;;;;;;;5.45;1.58;;;24.20;99.90;;;;;;5035614;28;20017;-57
2022/07/20 11:35:59;;;;;;;12.00;1.70;;;24.20;99.90;;;;;;5034227;28;20034;-60
2022/07/20 11:38:39;;;;;;;6.60;1.88;;;24.30;99.90;;;;;;5033769;28;20699;-58
2022/07/20 11:41:08;;;;;;;4.15;1.45;;;24.70;99.90;;;;;;5028741;28;20034;-59
2022/07/20 11:43:34;;;;;;;10.20;2.30;;;25.00;99.90;;;;;;5036575;28;20120;-59
2022/07/20 11:46:13;;;;;;;7.32;2.10;;;24.90;99.90;;;;;;5028322;28;20120;-59
2022/07/20 11:48:40;;;;;;;7.35;1.73;;;25.00;99.90;;;;;;5026985;28;20045;-59
2022/07/20 11:51:06;;;;;;;6.00;1.92;;;25.00;99.90;;;;;;5026822;28;20030;-59
2022/07/20 11:53:35;;;;;;;10.32;1.90;;;25.40;99.90;;;;;;5032305;28;20083;-59
2022/07/20 11:56:04;;;;;;;3.05;1.60;;;25.70;99.90;;;;;;5039210;28;20057;-58
2022/07/20 11:58:36;;;;;;;8.90;1.90;;;26.30;99.90;;;;;;5026514;28;20060;-59
2022/07/20 12:01:04;;;;;;;5.32;2.65;;;26.30;99.90;;;;;;5034350;28;20083;-58
2022/07/20 12:03:34;;;;;;;8.30;2.45;;;25.50;99.90;;;;;;5033759;28;20032;-59
2022/07/20 12:06:02;;;;;;;7.65;1.98;;;24.60;99.90;;;;;;5031666;28;20042;-58
2022/07/20 12:08:28;;;;;;;8.27;2.28;;;24.30;99.90;;;;;;5033710;28;20485;-60
2022/07/20 12:10:55;;;;;;;4.43;2.08;;;24.40;99.90;;;;;;5031906;28;20071;-58
2022/07/20 12:13:21;;;;;;;8.38;2.10;;;24.30;99.90;;;;;;5033143;28;20030;-58
2022/07/20 12:15:59;;;;;;;11.70;3.50;;;25.30;99.90;;;;;;5028438;28;20098;-58
2022/07/20 12:18:33;;;;;;;6.65;1.70;;;25.90;99.90;;;;;;5029499;28;20029;-59
2022/07/20 12:21:00;;;;;;;6.28;1.88;;;26.40;99.90;;;;;;5031073;28;20026;-59
2022/07/20 12:23:26;;;;;;;7.15;2.47;;;26.30;99.90;;;;;;5026959;28;20287;-58
2022/07/20 12:25:52;;;;;;;6.07;2.15;;;25.90;99.90;;;;;;5029216;28;20021;-59
2022/07/20 12:28:32;;;;;;;7.35;2.90;;;25.60;99.90;;;;;;5021539;28;20393;-59
2022/07/20 12:31:13;;;;;;;6.38;1.92;;;26.20;99.90;;;;;;5027346;28;20021;-60
2022/07/20 12:33:58;;;;;;;11.77;2.40;;;26.60;99.90;;;;;;5040137;28;20025;-60
2022/07/20 12:36:34;;;;;;;7.07;2.40;;;26.10;99.90;;;;;;5030532;28;20084;-59
2022/07/20 12:39:02;;;;;;;8.30;1.88;;;27.00;99.90;;;;;;5030939;28;20025;-59
2022/07/20 12:41:28;;;;;;;8.30;2.30;;;27.50;99.90;;;;;;5034273;28;20087;-59
2022/07/20 12:43:54;;;;;;;8.10;2.30;;;27.70;99.80;;;;;;5037200;28;20029;-59
2022/07/20 12:46:20;;;;;;;8.25;2.17;;;27.90;99.00;;;;;;5030151;28;20029;-58
2022/07/20 12:48:48;;;;;;;6.80;2.08;;;27.70;98.70;;;;;;5034269;28;20041;-58